Time;durP1;ratioP1;P1;durP2;ratioP2;P2;SDS_P1;SDS_P2;PMS_P1;PMS_P2;Temp;Humidity;BMP_temperature;BMP_pressure;BME280_temperature;BME280_humidity;BME280_pressure;Samples;Min_cycle;Max_cycle;Signal;HPM_P1;HPM_P2
2022/05/09 00:02:01;;;;;;;16.73;4.00;;;;;;;;;;5051599;28;20045;-63
2022/05/09 00:04:27;;;;;;;13.30;4.28;;;;;;;;;;5051376;28;20040;-64
2022/05/09 00:06:53;;;;;;;15.63;4.95;;;;;;;;;;5050298;28;20029;-64
2022/05/09 00:09:19;;;;;;;15.85;4.28;;;;;;;;;;5050147;28;20041;-63
2022/05/09 00:11:45;;;;;;;16.25;4.97;;;;;;;;;;5046235;28;20120;-63
2022/05/09 00:14:12;;;;;;;17.63;5.10;;;;;;;;;;5050958;28;20040;-63
2022/05/09 00:16:38;;;;;;;18.85;5.13;;;;;;;;;;5051443;28;20049;-64
2022/05/09 00:19:05;;;;;;;19.27;4.60;;;;;;;;;;5050646;28;20041;-63
2022/05/09 00:21:35;;;;;;;16.40;5.40;;;;;;;;;;5051347;28;20060;-63
2022/05/09 00:24:01;;;;;;;18.73;5.03;;;;;;;;;;5051279;28;20076;-63
2022/05/09 00:26:31;;;;;;;15.32;4.63;;;;;;;;;;5042358;28;20036;-64
2022/05/09 00:28:57;;;;;;;16.45;4.40;;;;;;;;;;5048579;28;20052;-64
2022/05/09 00:31:23;;;;;;;11.07;4.30;;;;;;;;;;5051729;28;20040;-63
2022/05/09 00:33:49;;;;;;;16.50;5.30;;;;;;;;;;5050780;28;20123;-64
2022/05/09 00:36:17;;;;;;;13.02;4.57;;;;;;;;;;5049266;28;20183;-63
2022/05/09 00:38:44;;;;;;;14.60;4.90;;;;;;;;;;5049952;28;20069;-63
2022/05/09 00:43:55;;;;;;;13.25;4.35;;;;;;;;;;5054843;28;20033;-63
2022/05/09 00:46:21;;;;;;;17.38;4.88;;;;;;;;;;5050553;28;20048;-63
2022/05/09 00:48:47;;;;;;;13.82;4.65;;;;;;;;;;5054859;28;20041;-63
2022/05/09 00:51:16;;;;;;;15.30;5.40;;;;;;;;;;5053366;28;20037;-63
2022/05/09 00:53:42;;;;;;;18.20;4.78;;;;;;;;;;5053109;28;20442;-63
2022/05/09 00:56:11;;;;;;;12.85;4.40;;;;;;;;;;5052996;28;20044;-63
2022/05/09 00:58:39;;;;;;;15.02;4.75;;;;;;;;;;5042581;28;20033;-63
2022/05/09 01:01:08;;;;;;;18.33;4.93;;;;;;;;;;5052293;28;20379;-63
2022/05/09 01:03:41;;;;;;;13.77;4.55;;;;;;;;;;5052050;28;20043;-63
2022/05/09 01:06:08;;;;;;;17.30;5.70;;;;;;;;;;5047699;28;20051;-63
2022/05/09 01:08:34;;;;;;;12.05;4.15;;;;;;;;;;5053449;28;20090;-63
2022/05/09 01:11:03;;;;;;;12.70;4.82;;;;;;;;;;5053827;28;20475;-63
2022/05/09 01:13:31;;;;;;;14.63;4.43;;;;;;;;;;5053475;28;20040;-63
2022/05/09 01:15:58;;;;;;;17.70;5.07;;;;;;;;;;5054117;28;20510;-63
2022/05/09 01:18:25;;;;;;;14.30;4.95;;;;;;;;;;5054810;28;20192;-63
2022/05/09 01:20:51;;;;;;;13.70;4.40;;;;;;;;;;5053988;28;20049;-63
2022/05/09 01:23:17;;;;;;;13.02;4.53;;;;;;;;;;5048955;28;20041;-63
2022/05/09 01:25:43;;;;;;;17.55;4.70;;;;;;;;;;5053600;28;20059;-63
2022/05/09 01:28:11;;;;;;;14.32;4.82;;;;;;;;;;5045966;28;20038;-63
2022/05/09 01:30:56;;;;;;;15.90;5.60;;;;;;;;;;5053338;28;20049;-63
2022/05/09 01:33:24;;;;;;;9.80;4.45;;;;;;;;;;5054398;28;20045;-63
2022/05/09 01:35:55;;;;;;;13.82;4.43;;;;;;;;;;5053216;28;20111;-63
2022/05/09 01:38:29;;;;;;;10.75;4.53;;;;;;;;;;5053634;28;20048;-63
2022/05/09 01:40:55;;;;;;;12.63;4.30;;;;;;;;;;5052594;28;20041;-63
2022/05/09 01:43:35;;;;;;;12.20;4.88;;;;;;;;;;5054190;28;20049;-63
2022/05/09 01:46:02;;;;;;;15.18;5.25;;;;;;;;;;5050214;28;20048;-63
2022/05/09 01:51:13;;;;;;;15.25;5.68;;;;;;;;;;5052868;28;20068;-63
2022/05/09 01:53:39;;;;;;;13.55;4.38;;;;;;;;;;5052548;28;20459;-63
2022/05/09 01:56:05;;;;;;;16.48;5.03;;;;;;;;;;5053559;28;20067;-63
2022/05/09 01:58:31;;;;;;;17.88;5.30;;;;;;;;;;5051957;28;20064;-63
2022/05/09 02:00:57;;;;;;;14.82;5.07;;;;;;;;;;5052123;28;20064;-63
2022/05/09 02:03:23;;;;;;;18.70;5.07;;;;;;;;;;5052845;28;20084;-63
2022/05/09 02:05:49;;;;;;;16.05;4.95;;;;;;;;;;5051996;28;20071;-63
2022/05/09 02:08:15;;;;;;;12.48;4.40;;;;;;;;;;5052208;28;20087;-63
2022/05/09 02:10:42;;;;;;;13.45;4.82;;;;;;;;;;5052868;28;20033;-63
2022/05/09 02:13:08;;;;;;;13.40;4.93;;;;;;;;;;5052520;28;20040;-63
2022/05/09 02:15:34;;;;;;;12.27;5.10;;;;;;;;;;5052751;28;20056;-63
2022/05/09 02:18:01;;;;;;;16.23;5.50;;;;;;;;;;5053675;28;20041;-63
2022/05/09 02:20:27;;;;;;;15.40;5.45;;;;;;;;;;5052995;28;20486;-63
2022/05/09 02:22:53;;;;;;;23.63;5.85;;;;;;;;;;5053204;28;20078;-63
2022/05/09 02:25:31;;;;;;;17.88;5.65;;;;;;;;;;5052720;28;20511;-63
2022/05/09 02:28:01;;;;;;;13.93;4.68;;;;;;;;;;5044983;28;20479;-63
2022/05/09 02:30:27;;;;;;;16.90;5.63;;;;;;;;;;5051543;28;20044;-63
2022/05/09 02:32:53;;;;;;;12.32;5.38;;;;;;;;;;5052756;28;20399;-63
2022/05/09 02:35:20;;;;;;;15.95;5.18;;;;;;;;;;5053162;28;20045;-63
2022/05/09 02:37:47;;;;;;;12.07;4.95;;;;;;;;;;5052135;28;20037;-63
2022/05/09 02:40:13;;;;;;;14.30;5.82;;;;;;;;;;5052078;28;20115;-63
2022/05/09 02:42:39;;;;;;;13.95;5.50;;;;;;;;;;5052312;28;20178;-63
2022/05/09 02:45:06;;;;;;;15.32;5.45;;;;;;;;;;5051100;28;20033;-63
2022/05/09 02:47:32;;;;;;;13.60;6.03;;;;;;;;;;5049685;22;20112;-58
2022/05/09 02:49:58;;;;;;;17.67;5.75;;;;;;;;;;5014358;28;20089;-58
2022/05/09 02:52:24;;;;;;;17.73;5.70;;;;;;;;;;5022544;28;20520;-58
2022/05/09 02:54:50;;;;;;;17.90;6.00;;;;;;;;;;5026853;28;20033;-58
2022/05/09 02:57:16;;;;;;;16.13;5.63;;;;;;;;;;5013200;28;20484;-58
2022/05/09 02:59:42;;;;;;;13.95;5.57;;;;;;;;;;5031344;28;20038;-58
2022/05/09 03:02:09;;;;;;;21.27;6.13;;;;;;;;;;5013146;28;20049;-58
2022/05/09 03:04:41;;;;;;;18.30;6.38;;;;;;;;;;5032383;28;20103;-58
2022/05/09 03:07:11;;;;;;;19.35;6.68;;;;;;;;;;5031887;28;20042;-58
2022/05/09 03:09:38;;;;;;;15.90;6.53;;;;;;;;;;5031091;28;20060;-58
2022/05/09 03:12:05;;;;;;;13.18;6.07;;;;;;;;;;5024258;28;20084;-58
2022/05/09 03:14:31;;;;;;;15.20;5.82;;;;;;;;;;5024161;28;20040;-59
2022/05/09 03:16:58;;;;;;;15.65;5.70;;;;;;;;;;5011348;28;20610;-58
2022/05/09 03:19:27;;;;;;;19.13;6.30;;;;;;;;;;5013387;28;20084;-59
2022/05/09 03:21:53;;;;;;;16.83;5.82;;;;;;;;;;5023460;28;20037;-58
2022/05/09 03:24:19;;;;;;;17.98;6.13;;;;;;;;;;5023857;28;20500;-59
2022/05/09 03:26:46;;;;;;;17.75;6.85;;;;;;;;;;5014638;28;20578;-58
2022/05/09 03:29:12;;;;;;;19.55;6.65;;;;;;;;;;5030321;28;20086;-58
2022/05/09 03:31:38;;;;;;;18.27;6.13;;;;;;;;;;5031167;28;20038;-58
2022/05/09 03:34:04;;;;;;;13.20;6.03;;;;;;;;;;5031855;28;20041;-58
2022/05/09 03:36:30;;;;;;;17.27;6.03;;;;;;;;;;5022916;28;20119;-58
2022/05/09 03:38:57;;;;;;;14.95;6.03;;;;;;;;;;5029610;28;20081;-59
2022/05/09 03:41:23;;;;;;;12.98;5.65;;;;;;;;;;5029962;28;20037;-58
2022/05/09 03:43:49;;;;;;;15.90;5.93;;;;;;;;;;5031971;28;20043;-58
2022/05/09 03:46:15;;;;;;;15.90;5.88;;;;;;;;;;5015262;28;20121;-59
2022/05/09 03:48:41;;;;;;;18.95;6.50;;;;;;;;;;5028427;28;20045;-59
2022/05/09 03:51:07;;;;;;;15.50;6.05;;;;;;;;;;5029715;28;20034;-59
2022/05/09 03:53:33;;;;;;;19.60;6.25;;;;;;;;;;5029546;28;20034;-58
2022/05/09 03:56:00;;;;;;;16.15;6.65;;;;;;;;;;5031785;28;20064;-58
2022/05/09 03:58:26;;;;;;;15.88;5.63;;;;;;;;;;5022403;28;20041;-59
2022/05/09 04:00:52;;;;;;;20.15;6.60;;;;;;;;;;5025424;28;20037;-59
2022/05/09 04:03:18;;;;;;;16.27;6.45;;;;;;;;;;5027062;28;20124;-58
2022/05/09 04:05:44;;;;;;;20.50;6.95;;;;;;;;;;5021414;28;20517;-58
2022/05/09 04:08:11;;;;;;;16.05;6.35;;;;;;;;;;5026226;28;20049;-58
2022/05/09 04:10:40;;;;;;;14.82;6.93;;;;;;;;;;5025999;28;20498;-58
2022/05/09 04:13:06;;;;;;;16.00;6.05;;;;;;;;;;5025010;28;20511;-59
2022/05/09 04:18:17;;;;;;;20.23;6.93;;;;;;;;;;5011549;28;20077;-59
2022/05/09 04:20:44;;;;;;;13.55;6.63;;;;;;;;;;5028084;28;20088;-59
2022/05/09 04:23:10;;;;;;;14.20;6.45;;;;;;;;;;5027735;28;20462;-58
2022/05/09 04:25:36;;;;;;;15.40;6.25;;;;;;;;;;5011792;28;20069;-59
2022/05/09 04:28:03;;;;;;;19.35;6.82;;;;;;;;;;5016088;28;20045;-58
2022/05/09 04:30:30;;;;;;;18.42;6.72;;;;;;;;;;5029230;28;20029;-58
2022/05/09 04:32:56;;;;;;;14.32;6.68;;;;;;;;;;5028066;28;20033;-58
2022/05/09 04:35:22;;;;;;;13.07;6.05;;;;;;;;;;5028458;28;20095;-58
2022/05/09 04:37:49;;;;;;;19.98;6.40;;;;;;;;;;5021059;28;20045;-58
2022/05/09 04:40:19;;;;;;;15.45;6.60;;;;;;;;;;5027117;28;20124;-59
2022/05/09 04:42:45;;;;;;;16.05;6.57;;;;;;;;;;5024997;28;20044;-58
2022/05/09 04:45:15;;;;;;;18.88;7.13;;;;;;;;;;5027537;28;20041;-58
2022/05/09 04:47:42;;;;;;;15.88;6.82;;;;;;;;;;5011059;28;20379;-58
2022/05/09 04:50:09;;;;;;;23.02;7.30;;;;;;;;;;5023100;28;20040;-58
2022/05/09 04:52:35;;;;;;;18.08;7.80;;;;;;;;;;5024621;28;20380;-59
2022/05/09 04:55:01;;;;;;;17.10;7.00;;;;;;;;;;5026945;28;20491;-59
2022/05/09 04:57:27;;;;;;;18.00;7.45;;;;;;;;;;5021947;28;20052;-58
2022/05/09 04:59:53;;;;;;;21.20;7.60;;;;;;;;;;5029543;28;20033;-58
2022/05/09 05:02:19;;;;;;;17.67;7.93;;;;;;;;;;5027331;28;20068;-58
2022/05/09 05:04:45;;;;;;;18.40;7.65;;;;;;;;;;5012163;28;20044;-58
2022/05/09 05:07:11;;;;;;;16.15;7.70;;;;;;;;;;5011976;28;20045;-58
2022/05/09 05:09:37;;;;;;;18.92;7.63;;;;;;;;;;5026972;28;20040;-58
2022/05/09 05:12:03;;;;;;;16.92;7.68;;;;;;;;;;5026335;28;20189;-58
2022/05/09 05:14:29;;;;;;;18.73;7.57;;;;;;;;;;5027378;28;20044;-59
2022/05/09 05:16:59;;;;;;;21.00;7.47;;;;;;;;;;5022067;28;20033;-59
2022/05/09 05:19:25;;;;;;;18.98;7.45;;;;;;;;;;5024470;28;20048;-59
2022/05/09 05:21:51;;;;;;;16.15;8.07;;;;;;;;;;5027317;28;20041;-59
2022/05/09 05:24:17;;;;;;;20.98;8.18;;;;;;;;;;5025530;28;20037;-59
2022/05/09 05:26:43;;;;;;;21.98;7.82;;;;;;;;;;5015889;28;20073;-58
2022/05/09 05:29:09;;;;;;;21.30;9.52;;;;;;;;;;5028820;28;20029;-59
2022/05/09 05:31:35;;;;;;;24.20;7.60;;;;;;;;;;5013976;28;20541;-59
2022/05/09 05:34:01;;;;;;;22.17;9.30;;;;;;;;;;5033745;28;20065;-59
2022/05/09 05:36:28;;;;;;;21.25;7.45;;;;;;;;;;5027046;28;20037;-59
2022/05/09 05:38:54;;;;;;;18.27;8.43;;;;;;;;;;5033351;28;20041;-59
2022/05/09 05:41:20;;;;;;;23.40;7.68;;;;;;;;;;5010669;28;20128;-58
2022/05/09 05:43:46;;;;;;;16.65;8.45;;;;;;;;;;5033178;28;20116;-59
2022/05/09 05:46:12;;;;;;;23.13;7.82;;;;;;;;;;5031247;28;20083;-59
2022/05/09 05:48:38;;;;;;;22.60;8.90;;;;;;;;;;5027617;28;20052;-59
2022/05/09 05:51:05;;;;;;;17.77;7.93;;;;;;;;;;5026873;28;20061;-58
2022/05/09 05:53:31;;;;;;;21.23;8.10;;;;;;;;;;5033582;28;20084;-59
2022/05/09 05:55:57;;;;;;;22.10;8.45;;;;;;;;;;5025032;28;20037;-59
2022/05/09 05:58:25;;;;;;;23.13;9.73;;;;;;;;;;5028295;28;20042;-59
2022/05/09 06:00:51;;;;;;;19.20;8.55;;;;;;;;;;5033951;28;20069;-59
2022/05/09 06:03:20;;;;;;;29.50;8.80;;;;;;;;;;5032234;28;20073;-59
2022/05/09 06:05:46;;;;;;;19.75;7.85;;;;;;;;;;5033089;28;20033;-59
2022/05/09 06:08:12;;;;;;;21.27;7.57;;;;;;;;;;5031620;28;20175;-59
2022/05/09 06:10:38;;;;;;;18.77;7.75;;;;;;;;;;5033881;28;20040;-58
2022/05/09 06:13:05;;;;;;;25.27;8.38;;;;;;;;;;5030875;28;20404;-58
2022/05/09 06:15:36;;;;;;;20.13;8.10;;;;;;;;;;5014584;28;20038;-59
2022/05/09 06:18:12;;;;;;;22.33;8.32;;;;;;;;;;5026250;28;20411;-58
2022/05/09 06:20:40;;;;;;;16.55;8.10;;;;;;;;;;5030090;28;20037;-59
2022/05/09 06:23:06;;;;;;;23.10;7.72;;;;;;;;;;5028397;28;20116;-59
2022/05/09 06:25:34;;;;;;;18.15;8.02;;;;;;;;;;5029671;28;20557;-59
2022/05/09 06:28:00;;;;;;;23.15;8.13;;;;;;;;;;5023986;28;20037;-59
2022/05/09 06:30:27;;;;;;;22.80;8.05;;;;;;;;;;5033052;28;20045;-59
2022/05/09 06:32:53;;;;;;;18.27;7.75;;;;;;;;;;5031749;28;20171;-59
2022/05/09 06:35:21;;;;;;;16.85;7.78;;;;;;;;;;5019133;28;20515;-59
2022/05/09 06:37:48;;;;;;;20.60;8.07;;;;;;;;;;5030130;28;20056;-58
2022/05/09 06:40:14;;;;;;;23.40;7.63;;;;;;;;;;5031260;28;20119;-59
2022/05/09 06:42:40;;;;;;;23.42;8.05;;;;;;;;;;5030317;28;20479;-59
2022/05/09 06:45:07;;;;;;;18.80;7.30;;;;;;;;;;5030031;28;20052;-58
2022/05/09 06:47:33;;;;;;;16.25;6.82;;;;;;;;;;5023610;28;20042;-58
2022/05/09 06:50:00;;;;;;;24.10;7.45;;;;;;;;;;5028750;28;20033;-58
2022/05/09 06:52:26;;;;;;;16.13;6.85;;;;;;;;;;5032031;28;20403;-58
2022/05/09 06:54:52;;;;;;;21.58;6.40;;;;;;;;;;5031624;28;20034;-58
2022/05/09 06:57:18;;;;;;;14.55;6.13;;;;;;;;;;5022443;28;20034;-58
2022/05/09 06:59:43;;;;;;;16.63;6.50;;;;;;;;;;5025106;28;20038;-58
2022/05/09 07:02:12;;;;;;;18.83;5.82;;;;;;;;;;5030302;28;20415;-58
2022/05/09 07:04:39;;;;;;;16.83;6.68;;;;;;;;;;5020586;28;20049;-58
2022/05/09 07:07:05;;;;;;;16.33;6.13;;;;;;;;;;5026206;28;20041;-63
2022/05/09 07:09:30;;;;;;;19.05;5.90;;;;;;;;;;5030320;28;20034;-63
2022/05/09 07:11:56;;;;;;;13.27;6.43;;;;;;;;;;5030456;28;20114;-63
2022/05/09 07:14:23;;;;;;;18.30;6.53;;;;;;;;;;5030619;28;20049;-63
2022/05/09 07:16:49;;;;;;;17.80;6.93;;;;;;;;;;5024412;28;20081;-63
2022/05/09 07:19:16;;;;;;;17.50;6.45;;;;;;;;;;5010034;28;20057;-63
2022/05/09 07:21:42;;;;;;;17.13;6.22;;;;;;;;;;5023149;28;20037;-63
2022/05/09 07:24:09;;;;;;;18.15;6.65;;;;;;;;;;5011331;28;20041;-62
2022/05/09 07:26:36;;;;;;;18.55;6.95;;;;;;;;;;5025128;28;20175;-63
2022/05/09 07:29:02;;;;;;;18.02;6.80;;;;;;;;;;5022722;28;20042;-63
2022/05/09 07:31:29;;;;;;;19.55;6.13;;;;;;;;;;5023221;28;20033;-64
2022/05/09 07:33:54;;;;;;;16.55;6.32;;;;;;;;;;5030809;28;20029;-63
2022/05/09 07:36:21;;;;;;;14.68;6.40;;;;;;;;;;5011262;28;20037;-63
2022/05/09 07:38:47;;;;;;;14.45;6.22;;;;;;;;;;5029172;28;20380;-63
2022/05/09 07:41:13;;;;;;;16.98;6.43;;;;;;;;;;5004721;28;20037;-63
2022/05/09 07:43:39;;;;;;;14.68;6.28;;;;;;;;;;5026502;28;20037;-63
2022/05/09 07:46:05;;;;;;;14.63;6.43;;;;;;;;;;5028632;28;20048;-63
2022/05/09 07:48:31;;;;;;;20.08;6.95;;;;;;;;;;5009021;28;20117;-63
2022/05/09 07:50:58;;;;;;;18.77;6.35;;;;;;;;;;5026571;28;20037;-63
2022/05/09 07:53:26;;;;;;;16.08;6.45;;;;;;;;;;5022437;28;20073;-63
2022/05/09 07:55:52;;;;;;;19.38;6.22;;;;;;;;;;5021852;28;20080;-63
2022/05/09 07:58:18;;;;;;;17.42;5.90;;;;;;;;;;5023220;28;20033;-62
2022/05/09 08:00:45;;;;;;;16.40;6.32;;;;;;;;;;5031988;28;20053;-63
2022/05/09 08:03:19;;;;;;;17.75;5.80;;;;;;;;;;5012229;28;20520;-62
2022/05/09 08:05:45;;;;;;;15.90;6.15;;;;;;;;;;5024073;28;20041;-62
2022/05/09 08:08:12;;;;;;;15.45;6.93;;;;;;;;;;5022847;28;20037;-62
2022/05/09 08:10:38;;;;;;;20.10;6.68;;;;;;;;;;5031642;28;20129;-63
2022/05/09 08:13:07;;;;;;;18.65;6.38;;;;;;;;;;5011587;28;20124;-63
2022/05/09 08:15:34;;;;;;;15.88;6.72;;;;;;;;;;5030477;28;20071;-63
2022/05/09 08:18:01;;;;;;;12.82;5.80;;;;;;;;;;5026192;28;20056;-63
2022/05/09 08:20:30;;;;;;;18.70;5.90;;;;;;;;;;5031059;28;20041;-64
2022/05/09 08:23:10;;;;;;;14.55;5.93;;;;;;;;;;5027268;28;20116;-63
2022/05/09 08:25:37;;;;;;;13.30;5.45;;;;;;;;;;5022086;28;20048;-63
2022/05/09 08:28:04;;;;;;;9.98;5.15;;;;;;;;;;5031155;28;20120;-63
2022/05/09 08:30:32;;;;;;;16.90;5.53;;;;;;;;;;5013497;28;20403;-62
2022/05/09 08:32:59;;;;;;;14.30;5.38;;;;;;;;;;5022680;28;20042;-62
2022/05/09 08:35:25;;;;;;;12.35;4.95;;;;;;;;;;5026688;28;20041;-62
2022/05/09 08:37:51;;;;;;;16.67;5.93;;;;;;;;;;5026249;28;20037;-63
2022/05/09 08:40:20;;;;;;;12.07;5.35;;;;;;;;;;5031222;28;20385;-62
2022/05/09 08:42:51;;;;;;;12.70;5.47;;;;;;;;;;5024420;28;20492;-62
2022/05/09 08:45:26;;;;;;;16.33;5.22;;;;;;;;;;5027596;28;20044;-62
2022/05/09 08:48:01;;;;;;;15.23;5.20;;;;;;;;;;5038031;22;20519;-66
2022/05/09 08:50:30;;;;;;;13.05;4.75;;;;;;;;;;5030946;28;20038;-67
2022/05/09 08:52:59;;;;;;;12.57;5.32;;;;;;;;;;5030316;28;20037;-67
2022/05/09 08:55:32;;;;;;;10.70;5.20;;;;;;;;;;5030173;28;20041;-67
2022/05/09 08:58:06;;;;;;;13.95;5.00;;;;;;;;;;5030941;28;20100;-67
2022/05/09 09:00:33;;;;;;;11.73;4.65;;;;;;;;;;5033560;28;20095;-67
2022/05/09 09:03:18;;;;;;;14.55;4.88;;;;;;;;;;5027662;28;20038;-67
2022/05/09 09:05:46;;;;;;;11.07;4.38;;;;;;;;;;5013580;28;20040;-67
2022/05/09 09:08:31;;;;;;;9.45;4.20;;;;;;;;;;5024194;28;20046;-67
2022/05/09 09:11:06;;;;;;;12.52;4.50;;;;;;;;;;5017766;28;20049;-68
2022/05/09 09:13:35;;;;;;;11.30;3.75;;;;;;;;;;5021727;28;20061;-67
2022/05/09 09:16:12;;;;;;;13.02;4.30;;;;;;;;;;5023191;28;20044;-67
2022/05/09 09:18:47;;;;;;;11.70;4.32;;;;;;;;;;4995442;28;20046;-67
2022/05/09 09:21:25;;;;;;;15.23;4.18;;;;;;;;;;4995709;28;20039;-67
2022/05/09 09:24:04;;;;;;;14.32;4.13;;;;;;;;;;5010949;28;20392;-67
2022/05/09 09:26:52;;;;;;;10.68;3.60;;;;;;;;;;5015013;28;20034;-67
2022/05/09 09:29:25;;;;;;;8.80;3.65;;;;;;;;;;5014671;28;20535;-67
2022/05/09 09:31:59;;;;;;;12.45;3.88;;;;;;;;;;5012180;28;20096;-67
2022/05/09 09:34:28;;;;;;;6.95;3.30;;;;;;;;;;5014037;28;20408;-67
2022/05/09 09:37:02;;;;;;;8.90;3.33;;;;;;;;;;5014783;28;20089;-67
2022/05/09 09:39:28;;;;;;;9.27;3.00;;;;;;;;;;5014797;28;20044;-67
2022/05/09 09:41:55;;;;;;;9.07;3.22;;;;;;;;;;5012831;28;20049;-67
2022/05/09 09:44:25;;;;;;;9.23;2.95;;;;;;;;;;5013952;28;20042;-67
2022/05/09 09:47:06;;;;;;;9.88;3.40;;;;;;;;;;5020444;28;20045;-67
2022/05/09 09:49:32;;;;;;;;;;;;;;;;;;4995511;28;20050;-67
2022/05/09 09:51:58;;;;;;;11.52;3.50;;;;;;;;;;5013071;28;20000;-67
2022/05/09 09:54:29;;;;;;;11.52;3.90;;;;;;;;;;5014589;28;20057;-67
2022/05/09 09:56:55;;;;;;;12.80;3.58;;;;;;;;;;5014650;28;20103;-67
2022/05/09 09:59:23;;;;;;;8.25;3.50;;;;;;;;;;5014181;28;20045;-67
2022/05/09 10:02:00;;;;;;;9.55;3.45;;;;;;;;;;5012623;28;20052;-67
2022/05/09 10:04:27;;;;;;;9.70;3.58;;;;;;;;;;5014189;28;20395;-67
2022/05/09 10:06:59;;;;;;;11.65;3.72;;;;;;;;;;5014136;28;20049;-67
2022/05/09 10:09:30;;;;;;;12.57;3.53;;;;;;;;;;5013779;28;20058;-67
2022/05/09 10:12:14;;;;;;;10.60;3.72;;;;;;;;;;5011698;28;20033;-67
2022/05/09 10:14:41;;;;;;;10.25;2.80;;;;;;;;;;5006872;28;20117;-68
2022/05/09 10:17:36;;;;;;;9.85;3.35;;;;;;;;;;5014255;28;20056;-67
2022/05/09 10:20:19;;;;;;;15.25;3.35;;;;;;;;;;4997350;28;20522;-67
2022/05/09 10:25:33;;;;;;;8.90;3.30;;;;;;;;;;5017457;28;20041;-67
2022/05/09 10:28:13;;;;;;;8.25;2.97;;;;;;;;;;5033472;28;20042;-67
2022/05/09 10:30:41;;;;;;;4.55;2.72;;;;;;;;;;5019968;28;20038;-67
2022/05/09 10:33:18;;;;;;;9.27;3.25;;;;;;;;;;5008673;28;20114;-67
2022/05/09 10:35:46;;;;;;;10.07;3.15;;;;;;;;;;5019322;28;20392;-67
2022/05/09 10:38:20;;;;;;;9.25;2.95;;;;;;;;;;5033066;28;20446;-67
2022/05/09 10:40:48;;;;;;;10.85;2.95;;;;;;;;;;5033172;28;20522;-67
2022/05/09 10:43:29;;;;;;;11.05;2.90;;;;;;;;;;4998688;28;20048;-67
2022/05/09 10:45:55;;;;;;;8.55;3.50;;;;;;;;;;5020838;28;20049;-67
2022/05/09 10:48:27;;;;;;;7.22;3.10;;;;;;;;;;5032656;28;20045;-67
2022/05/09 10:50:57;;;;;;;10.48;3.38;;;;;;;;;;5032978;28;20488;-67
2022/05/09 10:53:26;;;;;;;10.07;3.13;;;;;;;;;;5014389;28;20048;-67
2022/05/09 10:56:03;;;;;;;9.80;2.67;;;;;;;;;;5019453;28;20045;-67
2022/05/09 10:58:35;;;;;;;9.57;2.90;;;;;;;;;;5033186;28;20057;-67
2022/05/09 11:01:16;;;;;;;9.40;2.75;;;;;;;;;;5032648;28;20561;-67
2022/05/09 11:03:44;;;;;;;9.23;3.40;;;;;;;;;;4995273;28;20471;-67
2022/05/09 11:06:17;;;;;;;8.38;2.58;;;;;;;;;;5004164;28;20411;-67
2022/05/09 11:08:46;;;;;;;8.18;2.33;;;;;;;;;;5033087;28;20462;-67
2022/05/09 11:11:19;;;;;;;9.15;2.75;;;;;;;;;;5032676;28;20037;-67
2022/05/09 11:14:00;;;;;;;7.78;2.65;;;;;;;;;;5013535;28;20072;-67
2022/05/09 11:16:29;;;;;;;10.13;2.95;;;;;;;;;;5023999;28;20124;-67
2022/05/09 11:19:04;;;;;;;9.73;2.63;;;;;;;;;;5032024;28;20045;-67
2022/05/09 11:21:49;;;;;;;13.00;3.00;;;;;;;;;;5011878;28;20069;-67
2022/05/09 11:24:21;;;;;;;7.50;2.28;;;;;;;;;;5012896;28;20037;-67
2022/05/09 11:26:50;;;;;;;6.65;2.40;;;;;;;;;;5020736;28;20046;-67
2022/05/09 11:29:19;;;;;;;10.07;2.70;;;;;;;;;;5012562;28;20112;-67
2022/05/09 11:31:54;;;;;;;8.82;2.45;;;;;;;;;;5010380;28;20041;-67
2022/05/09 11:34:20;;;;;;;8.35;2.92;;;;;;;;;;5013013;28;20038;-67
2022/05/09 11:37:02;;;;;;;8.27;2.88;;;;;;;;;;5026338;28;20033;-67
2022/05/09 11:39:31;;;;;;;7.95;2.60;;;;;;;;;;5032242;28;20450;-67
2022/05/09 11:43:27;;;;;;;8.00;2.65;;;;;;;;;;5023694;28;20049;-67
2022/05/09 11:44:54;;;;;;;6.72;2.63;;;;;;;;;;5007250;28;20034;-67
2022/05/09 11:47:35;;;;;;;7.88;2.47;;;;;;;;;;5030694;28;20049;-67
2022/05/09 11:50:03;;;;;;;6.93;2.45;;;;;;;;;;5031954;28;20049;-67
2022/05/09 11:52:31;;;;;;;5.50;2.78;;;;;;;;;;5023753;28;20116;-67
2022/05/09 11:55:20;;;;;;;6.65;2.58;;;;;;;;;;5007633;28;20384;-68
2022/05/09 11:58:04;;;;;;;7.05;2.78;;;;;;;;;;4969738;28;20050;-67
2022/05/09 12:00:33;;;;;;;9.30;2.90;;;;;;;;;;4992503;28;20518;-67
2022/05/09 12:03:00;;;;;;;6.57;2.40;;;;;;;;;;5006138;28;20038;-68
2022/05/09 12:05:26;;;;;;;6.30;2.40;;;;;;;;;;5015350;28;20045;-68
2022/05/09 12:08:11;;;;;;;8.90;2.80;;;;;;;;;;5031271;28;20052;-67
2022/05/09 12:10:38;;;;;;;8.18;2.50;;;;;;;;;;5021583;28;20040;-67
2022/05/09 12:13:08;;;;;;;5.93;2.42;;;;;;;;;;5013861;28;20037;-67
2022/05/09 12:15:34;;;;;;;6.35;2.35;;;;;;;;;;5019437;28;20045;-68
2022/05/09 12:18:00;;;;;;;8.00;2.72;;;;;;;;;;5011328;28;20124;-68
2022/05/09 12:20:27;;;;;;;6.13;2.50;;;;;;;;;;5014402;28;20044;-67
2022/05/09 12:23:00;;;;;;;8.95;2.80;;;;;;;;;;5015488;28;20117;-67
2022/05/09 12:25:36;;;;;;;9.02;2.58;;;;;;;;;;5019706;28;20052;-68
2022/05/09 12:28:05;;;;;;;5.85;2.67;;;;;;;;;;4993908;28;20041;-67
2022/05/09 12:30:42;;;;;;;5.03;2.25;;;;;;;;;;5014954;28;20033;-67
2022/05/09 12:33:15;;;;;;;6.85;2.63;;;;;;;;;;5013762;28;20034;-67
2022/05/09 12:35:42;;;;;;;5.15;2.30;;;;;;;;;;5016942;28;20404;-68
2022/05/09 12:38:11;;;;;;;6.40;2.90;;;;;;;;;;5024051;28;20044;-67
2022/05/09 12:40:37;;;;;;;9.70;2.60;;;;;;;;;;5024470;28;20581;-67
2022/05/09 12:43:04;;;;;;;10.23;2.55;;;;;;;;;;5026306;28;20069;-67
2022/05/09 12:45:30;;;;;;;10.70;2.83;;;;;;;;;;4998898;28;20041;-67
2022/05/09 12:47:57;;;;;;;5.93;2.38;;;;;;;;;;5018253;28;20516;-67
2022/05/09 12:50:26;;;;;;;8.70;2.78;;;;;;;;;;5030590;28;20034;-67
2022/05/09 12:52:54;;;;;;;6.93;2.42;;;;;;;;;;5027189;28;20399;-67
2022/05/09 12:58:22;;;;;;;4.97;2.17;;;;;;;;;;5020929;28;20625;-67
2022/05/09 13:00:48;;;;;;;5.60;2.40;;;;;;;;;;5030832;28;20048;-67
2022/05/09 13:03:14;;;;;;;5.97;2.08;;;;;;;;;;5025685;28;20030;-67
2022/05/09 13:05:42;;;;;;;8.23;2.55;;;;;;;;;;5019365;28;20129;-67
2022/05/09 13:08:08;;;;;;;7.25;2.45;;;;;;;;;;5018502;28;20132;-67
2022/05/09 13:10:54;;;;;;;5.35;2.25;;;;;;;;;;5011523;28;20041;-67
2022/05/09 13:13:28;;;;;;;6.78;2.38;;;;;;;;;;5018763;28;20042;-67
2022/05/09 13:15:55;;;;;;;8.25;2.70;;;;;;;;;;5026912;28;20053;-67
2022/05/09 13:18:25;;;;;;;5.90;2.60;;;;;;;;;;5019267;28;20037;-67
2022/05/09 13:20:52;;;;;;;6.32;2.30;;;;;;;;;;5011435;28;20122;-67
2022/05/09 13:23:24;;;;;;;5.78;2.30;;;;;;;;;;5018840;28;20117;-67
2022/05/09 13:25:51;;;;;;;7.30;2.28;;;;;;;;;;5026001;28;20037;-67
2022/05/09 13:28:22;;;;;;;4.35;2.30;;;;;;;;;;5019659;28;20037;-67
2022/05/09 13:30:52;;;;;;;6.13;2.70;;;;;;;;;;5011596;28;20121;-67
2022/05/09 13:33:19;;;;;;;4.65;2.40;;;;;;;;;;5018368;28;20116;-67
2022/05/09 13:35:50;;;;;;;7.40;2.17;;;;;;;;;;5025458;28;20045;-67
2022/05/09 13:38:17;;;;;;;;;;;;;;;;;;5019469;28;20053;-67
2022/05/09 13:40:43;;;;;;;6.05;3.28;;;;;;;;;;5016011;28;20370;-67
2022/05/09 13:43:09;;;;;;;5.45;2.53;;;;;;;;;;5014062;28;20046;-67
2022/05/09 13:45:35;;;;;;;4.97;2.15;;;;;;;;;;5012376;28;20121;-67
2022/05/09 13:48:06;;;;;;;6.47;2.30;;;;;;;;;;5020321;28;20128;-67
2022/05/09 13:50:33;;;;;;;5.80;1.90;;;;;;;;;;5016965;28;20038;-67
2022/05/09 13:53:04;;;;;;;5.43;2.30;;;;;;;;;;5018318;28;20105;-67
2022/05/09 13:55:31;;;;;;;5.55;2.35;;;;;;;;;;5014910;28;20034;-67
2022/05/09 13:57:59;;;;;;;7.72;2.53;;;;;;;;;;5021123;28;20045;-67
2022/05/09 14:00:29;;;;;;;6.20;2.30;;;;;;;;;;5016357;28;20051;-67
2022/05/09 14:02:57;;;;;;;7.45;2.20;;;;;;;;;;5018902;28;20038;-67
2022/05/09 14:05:30;;;;;;;7.15;2.30;;;;;;;;;;5016247;28;20120;-67
2022/05/09 14:07:59;;;;;;;9.07;2.60;;;;;;;;;;5025553;28;20038;-67
2022/05/09 14:10:30;;;;;;;9.65;2.55;;;;;;;;;;5024067;28;20038;-67
2022/05/09 14:12:57;;;;;;;5.45;2.58;;;;;;;;;;5013696;28;20080;-67
2022/05/09 14:15:28;;;;;;;8.10;2.70;;;;;;;;;;5019305;28;20041;-67
2022/05/09 14:17:56;;;;;;;6.15;2.97;;;;;;;;;;4984877;28;20101;-67
2022/05/09 14:20:28;;;;;;;9.90;2.60;;;;;;;;;;5009608;28;20042;-67
2022/05/09 14:22:54;;;;;;;8.00;3.22;;;;;;;;;;5014119;28;20041;-66
2022/05/09 14:30:50;;;;;;;8.85;2.80;;;;;;;;;;5017846;28;20037;-66
2022/05/09 14:33:34;;;;;;;5.65;2.40;;;;;;;;;;5015079;28;20164;-67
2022/05/09 14:36:01;;;;;;;5.10;2.42;;;;;;;;;;5006243;28;20118;-66
2022/05/09 14:38:33;;;;;;;5.93;2.75;;;;;;;;;;5016385;28;20049;-66
2022/05/09 14:41:36;;;;;;;7.70;2.60;;;;;;;;;;5025613;28;20180;-66
2022/05/09 14:44:14;;;;;;;7.22;2.30;;;;;;;;;;5014660;28;20041;-66
2022/05/09 14:49:24;;;;;;;8.13;2.80;;;;;;;;;;5025782;28;20049;-64
2022/05/09 14:51:58;;;;;;;7.70;2.50;;;;;;;;;;5030753;28;20041;-64
2022/05/09 14:54:26;;;;;;;5.65;1.77;;;;;;;;;;5032219;28;20084;-64
2022/05/09 14:59:44;;;;;;;6.63;2.22;;;;;;;;;;5019371;28;20046;-64
2022/05/09 15:02:12;;;;;;;4.28;2.15;;;;;;;;;;5014732;28;20046;-64
2022/05/09 15:04:38;;;;;;;6.15;2.20;;;;;;;;;;5029788;28;20518;-64
2022/05/09 15:07:05;;;;;;;4.55;2.05;;;;;;;;;;5031012;28;20041;-64
2022/05/09 15:09:32;;;;;;;4.00;2.20;;;;;;;;;;5031264;28;20041;-64
2022/05/09 15:12:01;;;;;;;7.57;1.85;;;;;;;;;;5032552;28;20090;-64